Time;durP1;ratioP1;P1;durP2;ratioP2;P2;SDS_P1;SDS_P2;PMS_P1;PMS_P2;Temp;Humidity;BMP_temperature;BMP_pressure;BME280_temperature;BME280_humidity;BME280_pressure;Samples;Min_cycle;Max_cycle;Signal;HPM_P1;HPM_P2
2023/11/23 00:00:41;;;;;;;3.90;3.60;;;;;;;-4.59;100.00;100999.11;88197;284;137160;-68
2023/11/23 00:02:43;;;;;;;4.80;3.40;;;;;;;-4.62;100.00;100997.52;88250;284;25220;-70
2023/11/23 00:04:45;;;;;;;4.40;4.00;;;;;;;-4.63;100.00;100987.89;88268;285;136342;-69
2023/11/23 00:06:47;;;;;;;6.30;4.00;;;;;;;-4.66;100.00;100985.77;88268;276;23343;-68
2023/11/23 00:08:49;;;;;;;4.60;4.00;;;;;;;-4.72;100.00;100997.46;88167;276;136441;-71
2023/11/23 00:10:51;;;;;;;4.00;3.70;;;;;;;-4.79;100.00;101002.86;88313;282;25124;-72
2023/11/23 00:12:53;;;;;;;4.40;4.00;;;;;;;-4.84;100.00;100999.65;88198;284;136480;-68
2023/11/23 00:14:55;;;;;;;3.40;2.70;;;;;;;-4.86;100.00;100995.72;88180;277;22552;-68
2023/11/23 00:16:57;;;;;;;4.10;3.30;;;;;;;-4.80;100.00;100996.48;88160;284;136986;-69
2023/11/23 00:18:59;;;;;;;3.80;3.50;;;;;;;-4.71;100.00;100997.60;88249;281;22548;-69
2023/11/23 00:21:01;;;;;;;3.60;3.30;;;;;;;-4.69;100.00;100993.88;88355;280;136527;-70
2023/11/23 00:23:03;;;;;;;3.90;3.50;;;;;;;-4.74;100.00;101002.08;88240;284;26353;-69
2023/11/23 00:25:09;;;;;;;5.20;4.40;;;;;;;-4.80;100.00;101004.62;88305;276;136212;-70
2023/11/23 00:27:14;;;;;;;5.10;4.60;;;;;;;-4.83;100.00;101003.58;88361;276;25208;-71
2023/11/23 00:29:17;;;;;;;3.90;3.30;;;;;;;-4.86;100.00;101003.89;88303;276;136362;-70
2023/11/23 00:31:19;;;;;;;4.50;4.00;;;;;;;-4.89;100.00;101001.25;88426;278;25303;-69
2023/11/23 00:33:21;;;;;;;3.10;2.80;;;;;;;-4.91;100.00;101001.68;88313;276;136618;-70
2023/11/23 00:35:23;;;;;;;4.20;3.90;;;;;;;-4.93;100.00;101000.07;88455;281;25332;-70
2023/11/23 00:37:26;;;;;;;3.30;3.10;;;;;;;-4.96;100.00;100993.25;88311;283;136564;-72
2023/11/23 00:39:28;;;;;;;4.30;3.90;;;;;;;-4.98;100.00;100987.48;88371;282;24094;-71
2023/11/23 00:41:33;;;;;;;4.00;3.40;;;;;;;-5.01;100.00;100987.61;88324;276;136490;-70
2023/11/23 00:43:35;;;;;;;4.90;4.40;;;;;;;-5.02;100.00;100987.48;88335;276;23754;-67
2023/11/23 00:45:37;;;;;;;3.40;3.10;;;;;;;-5.00;100.00;100982.17;88352;276;137816;-69
2023/11/23 00:47:39;;;;;;;4.20;3.70;;;;;;;-4.87;100.00;100977.06;88384;281;24102;-69
2023/11/23 00:49:41;;;;;;;7.90;3.20;;;;;;;-4.77;100.00;100980.73;88260;285;137068;-68
2023/11/23 00:51:44;;;;;;;2.80;2.60;;;;;;;-4.77;100.00;100978.46;88405;284;25222;-69
2023/11/23 00:53:46;;;;;;;3.30;2.90;;;;;;;-4.85;100.00;100980.98;88261;281;135841;-69
2023/11/23 00:55:49;;;;;;;3.60;3.00;;;;;;;-4.93;100.00;100969.34;88447;284;22638;-72
2023/11/23 00:57:52;;;;;;;2.10;2.00;;;;;;;-4.97;100.00;100968.34;88391;284;136560;-72
2023/11/23 00:59:54;;;;;;;7.10;3.40;;;;;;;-5.02;100.00;100969.29;88376;285;22536;-68
2023/11/23 01:01:56;;;;;;;2.90;2.60;;;;;;;-5.09;100.00;100967.20;88316;276;136132;-69
2023/11/23 01:03:58;;;;;;;2.40;2.20;;;;;;;-5.16;100.00;100958.52;88464;277;24249;-72
2023/11/23 01:06:01;;;;;;;2.30;2.10;;;;;;;-5.22;100.00;100959.46;88256;281;136415;-72
2023/11/23 01:08:03;;;;;;;2.50;2.10;;;;;;;-5.25;100.00;100958.44;88294;276;138125;-69
2023/11/23 01:10:06;;;;;;;3.00;2.50;;;;;;;-5.28;100.00;100958.52;88432;280;22537;-72
2023/11/23 01:12:08;;;;;;;4.10;2.90;;;;;;;-5.31;100.00;100958.14;88336;284;137222;-73
2023/11/23 01:14:11;;;;;;;3.00;2.70;;;;;;;-5.36;100.00;100956.64;88360;278;24176;-68
2023/11/23 01:16:12;;;;;;;3.20;2.40;;;;;;;-5.41;100.00;100956.37;88270;277;136737;-70
2023/11/23 01:18:15;;;;;;;2.70;2.50;;;;;;;-5.51;100.00;100948.88;88448;280;25121;-70
2023/11/23 01:20:19;;;;;;;4.10;3.40;;;;;;;-5.50;100.00;100943.95;88291;275;139215;-70
2023/11/23 01:22:20;;;;;;;2.80;2.50;;;;;;;-5.45;100.00;100941.31;88357;281;22534;-71
2023/11/23 01:24:22;;;;;;;3.60;2.30;;;;;;;-5.51;100.00;100930.50;88252;282;137461;-72
2023/11/23 01:26:24;;;;;;;4.20;2.90;;;;;;;-5.63;100.00;100925.48;88186;282;25245;-67
2023/11/23 01:28:26;;;;;;;3.10;2.80;;;;;;;-5.71;100.00;100924.99;88267;285;136248;-68
2023/11/23 01:30:29;;;;;;;3.30;3.10;;;;;;;-5.77;100.00;100922.86;88359;279;22611;-68
2023/11/23 01:32:32;;;;;;;3.30;3.00;;;;;;;-5.80;100.00;100917.82;88252;278;137005;-68
2023/11/23 01:34:34;;;;;;;3.00;2.70;;;;;;;-5.84;100.00;100918.82;88365;276;22539;-69
2023/11/23 01:36:36;;;;;;;2.90;2.60;;;;;;;-5.86;100.00;100913.05;88292;283;136417;-70
2023/11/23 01:38:38;;;;;;;3.10;2.80;;;;;;;-5.89;100.00;100915.23;88294;278;22541;-70
2023/11/23 01:40:40;;;;;;;3.40;3.10;;;;;;;-5.91;100.00;100910.69;88228;278;136271;-70
2023/11/23 01:42:42;;;;;;;4.30;3.60;;;;;;;-5.92;100.00;100911.56;88293;278;22559;-70
2023/11/23 01:44:44;;;;;;;4.50;3.00;;;;;;;-5.93;100.00;100911.28;88181;279;136123;-70
2023/11/23 01:46:45;;;;;;;2.90;2.60;;;;;;;-5.94;100.00;100917.90;88406;285;23730;-72
2023/11/23 01:48:50;;;;;;;3.80;2.90;;;;;;;-5.95;100.00;100923.50;88297;282;138237;-70
2023/11/23 01:50:53;;;;;;;3.60;3.30;;;;;;;-5.95;100.00;100919.02;88446;285;22547;-71
2023/11/23 01:52:56;;;;;;;3.70;2.70;;;;;;;-5.85;100.00;100915.42;88289;282;137831;-69
2023/11/23 01:54:58;;;;;;;4.10;3.00;;;;;;;-5.73;100.00;100915.07;88532;278;22851;-68
2023/11/23 01:57:00;;;;;;;3.50;2.50;;;;;;;-5.71;100.00;100902.98;88270;277;136330;-70
2023/11/23 01:59:04;;;;;;;3.10;2.80;;;;;;;-5.75;100.00;100901.82;88333;279;24058;-68
2023/11/23 02:01:06;;;;;;;2.60;2.30;;;;;;;-5.83;100.00;100906.70;88338;281;137322;-70
2023/11/23 02:03:10;;;;;;;4.00;3.60;;;;;;;-5.91;100.00;100908.41;88612;285;22530;-67
2023/11/23 02:05:12;;;;;;;3.90;3.50;;;;;;;-5.96;100.00;100905.17;88423;281;136428;-66
2023/11/23 02:07:16;;;;;;;4.40;3.90;;;;;;;-6.00;100.00;100902.96;88466;276;22535;-65
2023/11/23 02:09:18;;;;;;;3.60;3.20;;;;;;;-6.02;100.00;100900.66;88314;278;139146;-66
2023/11/23 02:11:20;;;;;;;3.90;3.30;;;;;;;-6.03;100.00;100896.39;88328;286;26328;-67
2023/11/23 02:13:22;;;;;;;3.90;3.60;;;;;;;-6.05;100.00;100895.08;88296;281;136448;-72
2023/11/23 02:15:24;;;;;;;4.40;4.00;;;;;;;-6.06;100.00;100893.89;88380;285;24139;-71
2023/11/23 02:17:26;;;;;;;4.40;4.00;;;;;;;-6.08;100.00;100891.73;88308;285;136555;-71
2023/11/23 02:19:28;;;;;;;5.00;3.70;;;;;;;-6.10;100.00;100886.12;88330;286;22543;-69
2023/11/23 02:21:30;;;;;;;5.40;3.70;;;;;;;-6.12;100.00;100888.95;88296;283;137198;-68
2023/11/23 02:23:34;;;;;;;7.00;3.60;;;;;;;-6.11;100.00;100891.33;88367;284;22553;-70
2023/11/23 02:25:35;;;;;;;4.20;3.30;;;;;;;-6.10;100.00;100886.26;88351;283;136328;-70
2023/11/23 02:27:38;;;;;;;4.30;3.90;;;;;;;-6.00;100.00;100880.16;88350;285;22527;-72
2023/11/23 02:29:40;;;;;;;3.90;3.50;;;;;;;-5.92;100.00;100884.55;88316;282;138491;-71
2023/11/23 02:31:42;;;;;;;4.00;3.60;;;;;;;-5.86;100.00;100875.64;88374;284;22531;-70
2023/11/23 02:33:44;;;;;;;4.20;3.40;;;;;;;-5.89;100.00;100874.91;88318;285;136165;-69
2023/11/23 02:35:46;;;;;;;4.20;3.70;;;;;;;-5.93;100.00;100874.75;88505;286;24024;-70
2023/11/23 02:37:48;;;;;;;3.40;3.10;;;;;;;-5.95;100.00;100875.75;88314;278;136219;-70
2023/11/23 02:39:50;;;;;;;5.30;4.80;;;;;;;-5.96;100.00;100870.42;88386;282;22540;-70
2023/11/23 02:41:54;;;;;;;6.00;4.40;;;;;;;-5.98;100.00;100868.80;88274;282;137811;-71
2023/11/23 02:43:56;;;;;;;5.10;4.50;;;;;;;-6.09;100.00;100863.08;88452;285;22537;-71
2023/11/23 02:45:58;;;;;;;4.60;4.20;;;;;;;-6.06;100.00;100879.17;88271;278;137739;-69
2023/11/23 02:48:00;;;;;;;4.10;3.80;;;;;;;-6.08;100.00;100874.39;88397;282;22752;-69
2023/11/23 02:50:04;;;;;;;4.10;3.70;;;;;;;-6.08;100.00;100867.48;88137;278;135850;-68
2023/11/23 02:52:06;;;;;;;5.40;3.40;;;;;;;-6.07;100.00;100870.57;88373;284;137128;-68
2023/11/23 02:54:08;;;;;;;4.70;4.30;;;;;;;-6.06;100.00;100873.47;88252;275;25227;-70
2023/11/23 02:56:10;;;;;;;6.90;3.90;;;;;;;-6.03;100.00;100872.13;88308;275;137368;-71
2023/11/23 02:58:12;;;;;;;4.10;3.50;;;;;;;-5.93;100.00;100865.58;88400;281;22530;-71
2023/11/23 03:00:15;;;;;;;4.50;4.10;;;;;;;-5.82;100.00;100870.29;88230;283;137894;-70
2023/11/23 03:02:17;;;;;;;3.90;3.40;;;;;;;-5.83;100.00;100849.73;88381;280;22641;-69
2023/11/23 03:04:19;;;;;;;5.10;4.40;;;;;;;-5.74;100.00;100866.27;88177;283;136200;-69
2023/11/23 03:06:21;;;;;;;5.10;3.30;;;;;;;-5.80;100.00;100866.02;88269;285;22532;-70
2023/11/23 03:08:23;;;;;;;5.40;4.10;;;;;;;-5.84;100.00;100862.95;88240;282;136392;-69
2023/11/23 03:10:25;;;;;;;4.60;3.90;;;;;;;-5.87;100.00;100862.56;88323;277;26180;-70
2023/11/23 03:12:28;;;;;;;4.70;4.30;;;;;;;-5.87;100.00;100855.30;88261;285;136484;-69
2023/11/23 03:14:32;;;;;;;4.70;4.00;;;;;;;-5.88;100.00;100851.52;88386;285;25172;-72
2023/11/23 03:16:35;;;;;;;5.00;4.30;;;;;;;-5.89;100.00;100850.02;88233;280;136660;-72
2023/11/23 03:18:37;;;;;;;5.10;4.60;;;;;;;-5.89;100.00;100845.49;88362;281;25224;-70
2023/11/23 03:20:39;;;;;;;4.70;3.90;;;;;;;-5.90;100.00;100841.55;88250;284;137416;-70
2023/11/23 03:22:41;;;;;;;5.10;4.10;;;;;;;-5.93;100.00;100836.31;88394;278;22482;-69
2023/11/23 03:24:44;;;;;;;5.40;4.60;;;;;;;-5.91;100.00;100836.26;88300;284;136422;-70
2023/11/23 03:26:46;;;;;;;6.20;4.10;;;;;;;-5.93;100.00;100837.72;88490;286;22540;-69
2023/11/23 03:28:48;;;;;;;6.40;5.20;;;;;;;-5.92;100.00;100836.14;88276;279;136474;-70
2023/11/23 03:30:50;;;;;;;5.80;4.80;;;;;;;-5.94;100.00;100829.11;88465;285;25147;-69
2023/11/23 03:32:53;;;;;;;5.00;4.50;;;;;;;-5.95;100.00;100825.39;88245;285;136484;-69
2023/11/23 03:34:55;;;;;;;4.50;4.00;;;;;;;-5.96;100.00;100824.55;88404;278;22527;-68
2023/11/23 03:36:57;;;;;;;5.60;4.40;;;;;;;-5.86;100.00;100819.57;88301;278;137370;-68
2023/11/23 03:38:59;;;;;;;5.20;4.10;;;;;;;-5.73;100.00;100805.46;88332;286;22890;-65
2023/11/23 03:41:02;;;;;;;7.00;4.30;;;;;;;-5.62;100.00;100798.39;88252;283;136790;-70
2023/11/23 03:43:05;;;;;;;5.30;3.90;;;;;;;-5.60;100.00;100791.86;88350;281;22543;-71
2023/11/23 03:45:07;;;;;;;7.40;4.80;;;;;;;-5.62;100.00;100783.48;88436;282;136141;-72
2023/11/23 03:47:09;;;;;;;4.80;4.10;;;;;;;-5.63;100.00;100767.27;88445;282;24063;-68
2023/11/23 03:49:11;;;;;;;6.10;5.50;;;;;;;-5.66;100.00;100759.08;88201;278;136652;-69
2023/11/23 03:51:16;;;;;;;6.20;4.80;;;;;;;-5.68;100.00;100758.80;88340;282;24761;-69
2023/11/23 03:53:18;;;;;;;8.30;7.00;;;;;;;-5.70;100.00;100761.50;88284;286;136538;-67
2023/11/23 03:55:20;;;;;;;9.50;7.40;;;;;;;-5.73;100.00;100762.70;88313;282;24021;-71
2023/11/23 03:57:22;;;;;;;12.20;7.10;;;;;;;-5.78;100.00;100760.20;88107;285;136811;-72
2023/11/23 03:59:24;;;;;;;11.10;7.70;;;;;;;-5.82;100.00;100756.59;88429;278;22623;-67
2023/11/23 04:01:26;;;;;;;8.70;7.80;;;;;;;-5.84;100.00;100753.03;88323;282;136427;-71
2023/11/23 04:03:28;;;;;;;10.70;7.70;;;;;;;-5.83;100.00;100746.70;88376;285;22537;-72
2023/11/23 04:05:30;;;;;;;10.90;8.20;;;;;;;-5.79;100.00;100740.15;88309;281;137540;-71
2023/11/23 04:07:32;;;;;;;12.80;9.20;;;;;;;-5.77;100.00;100737.95;88443;281;22551;-69
2023/11/23 04:09:35;;;;;;;11.60;8.00;;;;;;;-5.75;100.00;100733.87;88270;282;136497;-69
2023/11/23 04:14:59;;;;;;;9.60;6.60;;;;;;;-5.71;100.00;100722.61;88368;284;22555;-71
2023/11/23 04:17:04;;;;;;;7.40;5.60;;;;;;;-5.73;100.00;100706.46;88362;284;136505;-69
2023/11/23 04:19:21;;;;;;;9.20;5.70;;;;;;;-5.63;100.00;100708.90;88388;281;25138;-68
2023/11/23 04:21:23;;;;;;;8.70;7.40;;;;;;;-5.58;100.00;100695.69;88196;277;137105;-68
2023/11/23 04:23:25;;;;;;;6.20;5.20;;;;;;;-5.40;100.00;100710.71;88372;284;22546;-71
2023/11/23 04:25:27;;;;;;;5.40;5.00;;;;;;;-5.27;100.00;100717.70;88302;278;136699;-68
2023/11/23 04:27:29;;;;;;;6.60;5.50;;;;;;;-5.29;100.00;100712.23;88360;277;22527;-69
2023/11/23 04:29:31;;;;;;;7.90;4.90;;;;;;;-5.33;100.00;100714.85;88199;281;136161;-71
2023/11/23 04:31:33;;;;;;;7.00;6.10;;;;;;;-5.33;100.00;100712.95;88371;278;24021;-70
2023/11/23 04:33:35;;;;;;;6.10;5.50;;;;;;;-5.40;100.00;100693.70;88224;285;136091;-70
2023/11/23 04:35:37;;;;;;;6.60;5.70;;;;;;;-5.29;100.00;100706.33;88320;278;22546;-71
2023/11/23 04:37:39;;;;;;;8.00;5.90;;;;;;;-5.25;100.00;100702.52;88173;278;136348;-69
2023/11/23 04:39:41;;;;;;;7.10;6.10;;;;;;;-5.22;100.00;100700.45;88298;276;22525;-69
2023/11/23 04:41:43;;;;;;;7.20;5.70;;;;;;;-5.22;100.00;100711.17;88318;276;136391;-71
2023/11/23 04:43:45;;;;;;;7.70;5.70;;;;;;;-5.19;100.00;100719.70;88432;280;22540;-70
2023/11/23 04:45:47;;;;;;;7.70;6.00;;;;;;;-5.20;100.00;100719.77;88347;279;136343;-71
2023/11/23 04:47:49;;;;;;;7.30;5.50;;;;;;;-5.21;100.00;100714.80;88496;275;22778;-71
2023/11/23 04:49:54;;;;;;;8.40;5.50;;;;;;;-5.21;100.00;100715.63;88303;280;136314;-71
2023/11/23 04:55:19;;;;;;;6.30;5.20;;;;;;;-5.22;100.00;100703.07;88717;282;22554;-66
2023/11/23 04:57:39;;;;;;;8.70;5.50;;;;;;;-5.24;100.00;100696.54;88728;278;136646;-69
2023/11/23 04:59:41;;;;;;;7.90;6.80;;;;;;;-5.23;100.00;100697.90;88555;274;25243;-68
2023/11/23 05:05:06;;;;;;;11.70;7.90;;;;;;;-5.03;100.00;100689.45;84630;282;5004804;-71
2023/11/23 05:07:08;;;;;;;11.90;5.80;;;;;;;-4.89;100.00;100684.86;91283;282;22356;-71
2023/11/23 05:09:10;;;;;;;12.20;5.90;;;;;;;-4.78;100.00;100679.09;91133;280;138162;-70
2023/11/23 05:11:12;;;;;;;7.90;5.80;;;;;;;-4.75;100.00;100671.84;89272;283;22556;-68
2023/11/23 05:13:15;;;;;;;14.30;7.60;;;;;;;-4.78;100.00;100660.03;88277;281;136315;-69
2023/11/23 05:15:17;;;;;;;9.00;5.90;;;;;;;-4.81;100.00;100654.30;88253;281;22718;-70
2023/11/23 05:17:19;;;;;;;8.60;6.10;;;;;;;-4.83;100.00;100654.73;91168;280;138746;-69
2023/11/23 05:19:21;;;;;;;9.60;7.30;;;;;;;-4.83;100.00;100647.33;90875;280;23703;-70
2023/11/23 05:21:40;;;;;;;9.80;6.90;;;;;;;-4.84;100.00;100632.97;88460;281;136655;-69
2023/11/23 05:23:42;;;;;;;10.70;8.40;;;;;;;-4.83;100.00;100636.90;88424;282;24136;-67
2023/11/23 05:25:44;;;;;;;10.90;7.40;;;;;;;-4.85;100.00;100629.39;88393;274;136711;-71
2023/11/23 05:27:46;;;;;;;10.60;7.40;;;;;;;-4.88;100.00;100627.44;88479;274;22556;-68
2023/11/23 05:29:48;;;;;;;8.70;6.40;;;;;;;-4.91;100.00;100624.46;88340;274;136505;-68
2023/11/23 05:31:52;;;;;;;10.70;6.60;;;;;;;-4.92;100.00;100618.47;88503;282;22527;-75
2023/11/23 05:33:54;;;;;;;8.70;6.70;;;;;;;-4.83;100.00;100604.63;88375;277;137175;-66
2023/11/23 05:35:56;;;;;;;9.30;6.60;;;;;;;-4.70;100.00;100600.81;88445;273;22531;-67
2023/11/23 05:37:58;;;;;;;8.30;5.60;;;;;;;-4.63;100.00;100600.95;88447;275;136434;-66
2023/11/23 05:40:00;;;;;;;7.50;6.40;;;;;;;-4.63;100.00;100596.24;88416;279;22625;-65
2023/11/23 05:42:03;;;;;;;7.90;6.80;;;;;;;-4.66;100.00;100596.46;88109;283;137178;-64
2023/11/23 05:44:06;;;;;;;8.10;5.40;;;;;;;-4.71;100.00;100594.59;88268;281;136736;-65
2023/11/23 05:46:09;;;;;;;10.80;8.80;;;;;;;-4.73;100.00;100591.27;88346;282;25200;-64
2023/11/23 05:48:15;;;;;;;11.80;8.20;;;;;;;-4.74;100.00;100588.71;91234;281;137520;-66
2023/11/23 05:50:17;;;;;;;10.20;7.30;;;;;;;-4.75;100.00;100585.80;90290;281;22537;-65
2023/11/23 05:52:19;;;;;;;10.60;7.40;;;;;;;-4.74;100.00;100589.76;89224;281;136930;-66
2023/11/23 05:54:21;;;;;;;10.90;7.50;;;;;;;-4.75;100.00;100588.41;88343;273;22540;-63
2023/11/23 05:56:23;;;;;;;10.50;8.00;;;;;;;-4.76;100.00;100588.69;88349;274;136897;-66
2023/11/23 05:58:26;;;;;;;9.00;6.70;;;;;;;-4.75;100.00;100585.48;88517;273;25331;-68
2023/11/23 06:00:28;;;;;;;11.10;7.20;;;;;;;-4.64;100.00;100582.98;88441;274;138847;-69
2023/11/23 06:02:30;;;;;;;10.10;7.90;;;;;;;-4.52;100.00;100583.00;88635;283;22620;-69
2023/11/23 06:04:32;;;;;;;7.90;5.70;;;;;;;-4.47;100.00;100575.59;88605;282;138383;-64
2023/11/23 06:06:35;;;;;;;12.00;8.20;;;;;;;-4.51;100.00;100568.36;88659;281;22541;-69
2023/11/23 06:08:38;;;;;;;12.80;8.40;;;;;;;-4.58;100.00;100559.02;88459;275;136489;-68
2023/11/23 06:10:39;;;;;;;17.00;8.80;;;;;;;-4.62;100.00;100553.23;88512;274;23780;-67
2023/11/23 06:12:42;;;;;;;13.50;7.90;;;;;;;-4.66;100.00;100550.83;88357;275;136325;-63
2023/11/23 06:14:44;;;;;;;10.90;7.00;;;;;;;-4.70;100.00;100544.28;88561;281;24053;-65
2023/11/23 06:16:46;;;;;;;10.90;8.20;;;;;;;-4.70;100.00;100535.80;88680;281;136660;-67
2023/11/23 06:18:48;;;;;;;14.40;9.00;;;;;;;-4.80;100.00;100515.52;88572;281;22546;-66
2023/11/23 06:20:50;;;;;;;16.40;8.70;;;;;;;-4.83;100.00;100506.70;88394;275;136658;-68
2023/11/23 06:22:52;;;;;;;14.20;9.50;;;;;;;-4.67;100.00;100516.20;88508;278;22530;-66
2023/11/23 06:24:56;;;;;;;11.20;7.40;;;;;;;-4.57;100.00;100506.96;88682;281;137316;-68
2023/11/23 06:26:58;;;;;;;13.20;9.70;;;;;;;-4.54;100.00;100500.35;88871;275;22534;-68
2023/11/23 06:29:03;;;;;;;11.80;8.30;;;;;;;-4.57;100.00;100493.42;88310;277;137760;-69
2023/11/23 06:31:07;;;;;;;10.40;7.60;;;;;;;-4.60;100.00;100494.80;88402;282;24052;-68
2023/11/23 06:33:09;;;;;;;11.10;7.10;;;;;;;-4.60;100.00;100498.68;88304;275;136697;-67
2023/11/23 06:35:11;;;;;;;8.60;6.80;;;;;;;-4.71;100.00;100486.58;88456;282;22538;-68
2023/11/23 06:37:13;;;;;;;9.70;7.50;;;;;;;-4.62;100.00;100506.40;88370;282;136503;-69
2023/11/23 06:39:23;;;;;;;10.00;6.50;;;;;;;-4.64;100.00;100514.13;88471;282;24288;-70
2023/11/23 06:41:26;;;;;;;11.10;8.00;;;;;;;-4.62;100.00;100525.27;88544;283;137167;-66
2023/11/23 06:43:28;;;;;;;10.50;8.10;;;;;;;-4.48;100.00;100521.90;88604;282;25239;-67
2023/11/23 06:45:29;;;;;;;8.80;6.50;;;;;;;-4.35;100.00;100517.33;88527;281;137189;-71
2023/11/23 06:47:32;;;;;;;7.90;6.50;;;;;;;-4.26;100.00;100515.10;88508;281;22584;-70
2023/11/23 06:49:35;;;;;;;7.90;6.20;;;;;;;-4.25;100.00;100516.10;88423;281;137322;-72
2023/11/23 06:51:36;;;;;;;7.20;5.80;;;;;;;-4.26;100.00;100521.35;88380;283;25181;-70
2023/11/23 06:53:43;;;;;;;9.80;6.10;;;;;;;-4.28;100.00;100507.59;88422;278;136205;-70
2023/11/23 06:55:45;;;;;;;10.80;7.60;;;;;;;-4.32;100.00;100506.92;88596;281;25310;-70
2023/11/23 06:57:47;;;;;;;9.30;7.00;;;;;;;-4.33;100.00;100504.07;88364;277;136677;-70
2023/11/23 06:59:51;;;;;;;8.70;6.70;;;;;;;-4.36;100.00;100496.89;88479;275;25171;-71
2023/11/23 07:01:53;;;;;;;9.30;7.30;;;;;;;-4.36;100.00;100486.88;88355;282;136532;-70
2023/11/23 07:03:55;;;;;;;14.60;7.00;;;;;;;-4.37;100.00;100484.47;88537;282;22524;-71
2023/11/23 07:05:57;;;;;;;11.70;8.10;;;;;;;-4.38;100.00;100481.91;88318;277;137905;-70
2023/11/23 07:07:59;;;;;;;9.10;6.60;;;;;;;-4.37;100.00;100477.02;88454;274;25106;-69
2023/11/23 07:10:06;;;;;;;9.20;7.10;;;;;;;-4.24;100.00;100476.80;88548;281;25121;-71
2023/11/23 07:12:08;;;;;;;11.50;8.10;;;;;;;-4.10;100.00;100463.67;88434;278;137219;-73
2023/11/23 07:14:11;;;;;;;9.40;7.00;;;;;;;-4.06;100.00;100462.58;88582;282;26271;-72
2023/11/23 07:16:13;;;;;;;10.70;6.50;;;;;;;-4.11;100.00;100456.40;88322;282;136371;-71
2023/11/23 07:18:15;;;;;;;8.50;6.50;;;;;;;-4.13;100.00;100445.05;88704;281;22531;-71
2023/11/23 07:20:19;;;;;;;9.50;7.60;;;;;;;-4.14;100.00;100430.23;88520;281;136143;-71
2023/11/23 07:22:23;;;;;;;10.80;7.90;;;;;;;-4.15;100.00;100424.55;88484;280;24017;-72
2023/11/23 07:24:25;;;;;;;13.10;9.30;;;;;;;-4.15;100.00;100415.33;88377;276;136470;-72
2023/11/23 07:26:29;;;;;;;11.90;9.00;;;;;;;-4.13;100.00;100405.33;88484;275;23966;-72
2023/11/23 07:28:32;;;;;;;12.10;9.10;;;;;;;-4.12;100.00;100395.89;88611;281;136362;-70
2023/11/23 07:30:33;;;;;;;9.90;7.50;;;;;;;-4.09;100.00;100393.16;88513;282;22619;-71
2023/11/23 07:32:36;;;;;;;10.80;7.90;;;;;;;-3.99;100.00;100384.88;88317;283;136796;-72
2023/11/23 07:34:38;;;;;;;11.80;7.70;;;;;;;-3.85;100.00;100382.95;88580;275;25220;-69
2023/11/23 07:36:42;;;;;;;14.10;9.20;;;;;;;-3.80;100.00;100375.02;88486;279;136781;-74
2023/11/23 07:38:48;;;;;;;13.90;9.70;;;;;;;-3.82;100.00;100372.71;88394;275;22550;-72
2023/11/23 07:40:50;;;;;;;12.10;8.10;;;;;;;-3.83;100.00;100366.75;88351;274;136297;-64
2023/11/23 07:42:52;;;;;;;13.90;9.80;;;;;;;-3.85;100.00;100360.42;88486;281;24169;-71
2023/11/23 07:44:54;;;;;;;10.50;8.10;;;;;;;-3.87;100.00;100354.14;88228;282;136327;-70
2023/11/23 07:46:58;;;;;;;14.20;10.30;;;;;;;-3.98;100.00;100329.27;88465;278;24140;-68
2023/11/23 07:49:01;;;;;;;14.90;9.30;;;;;;;-3.93;100.00;100326.70;88365;282;136878;-70
2023/11/23 07:51:03;;;;;;;13.50;9.10;;;;;;;-3.99;100.00;100318.72;88390;275;25244;-69
2023/11/23 07:53:07;;;;;;;9.70;7.70;;;;;;;-4.03;100.00;100310.45;88272;274;137008;-70
2023/11/23 07:55:10;;;;;;;12.20;7.80;;;;;;;-3.84;100.00;100315.21;88502;282;22536;-67
2023/11/23 07:57:12;;;;;;;11.70;8.50;;;;;;;-3.79;100.00;100312.25;88464;281;136849;-69
2023/11/23 07:59:14;;;;;;;12.90;10.40;;;;;;;-3.81;100.00;100311.56;88435;275;22534;-72
2023/11/23 08:01:18;;;;;;;12.70;9.20;;;;;;;-3.84;100.00;100307.39;88299;275;135957;-71
2023/11/23 08:03:21;;;;;;;20.00;15.70;;;;;;;-3.84;100.00;100307.36;88486;282;22534;-67
2023/11/23 08:05:23;;;;;;;14.70;10.30;;;;;;;-3.81;100.00;100305.30;88601;282;136840;-68
2023/11/23 08:07:26;;;;;;;12.40;8.60;;;;;;;-3.80;100.00;100298.45;88591;283;22555;-72
2023/11/23 08:09:29;;;;;;;10.40;8.80;;;;;;;-3.80;100.00;100296.52;88701;277;136673;-69
2023/11/23 08:11:31;;;;;;;14.10;9.80;;;;;;;-3.80;100.00;100295.36;88703;277;22530;-67
2023/11/23 08:13:34;;;;;;;14.70;8.60;;;;;;;-3.77;100.00;100298.31;88322;280;137443;-67
2023/11/23 08:15:37;;;;;;;17.00;9.60;;;;;;;-3.68;100.00;100298.90;88562;276;22882;-68
2023/11/23 08:17:39;;;;;;;13.30;10.10;;;;;;;-3.57;100.00;100294.77;88376;276;136848;-66
2023/11/23 08:19:50;;;;;;;14.30;9.70;;;;;;;-3.53;100.00;100298.98;88474;279;22530;-70
2023/11/23 08:21:55;;;;;;;13.00;8.10;;;;;;;-3.54;100.00;100299.39;88425;275;136016;-72
2023/11/23 08:23:56;;;;;;;12.10;9.10;;;;;;;-3.56;100.00;100297.61;88365;280;22533;-72
2023/11/23 08:26:03;;;;;;;11.60;8.90;;;;;;;-3.55;100.00;100284.39;88457;273;136110;-73
2023/11/23 08:28:05;;;;;;;11.50;9.20;;;;;;;-3.52;100.00;100275.27;88393;273;138700;-71
2023/11/23 08:30:08;;;;;;;12.40;9.30;;;;;;;-3.49;100.00;100273.89;88406;279;21515;-70
2023/11/23 08:32:12;;;;;;;11.40;9.30;;;;;;;-3.50;100.00;100270.35;88379;279;137090;-68
2023/11/23 08:34:14;;;;;;;14.80;10.70;;;;;;;-3.51;100.00;100271.41;88641;279;22570;-70
2023/11/23 08:36:17;;;;;;;19.90;13.80;;;;;;;-3.57;100.00;100261.56;88410;282;136968;-73
2023/11/23 08:38:19;;;;;;;16.60;9.40;;;;;;;-3.46;100.00;100269.02;88591;280;25303;-73
2023/11/23 08:40:24;;;;;;;12.90;9.30;;;;;;;-3.36;100.00;100265.55;88467;281;137157;-70
2023/11/23 08:42:26;;;;;;;14.20;9.20;;;;;;;-3.27;100.00;100262.20;88468;280;22551;-71
2023/11/23 08:44:28;;;;;;;12.50;9.20;;;;;;;-3.23;100.00;100257.77;88278;282;136364;-72
2023/11/23 08:46:31;;;;;;;14.10;9.50;;;;;;;-3.22;100.00;100250.92;88519;275;25301;-69
2023/11/23 08:48:33;;;;;;;12.20;10.30;;;;;;;-3.22;100.00;100250.04;88488;278;136636;-70
2023/11/23 08:50:37;;;;;;;11.20;9.60;;;;;;;-3.23;100.00;100243.55;88449;282;24252;-71
2023/11/23 08:52:39;;;;;;;12.50;9.70;;;;;;;-3.24;100.00;100237.89;88456;274;136482;-70
2023/11/23 08:54:42;;;;;;;18.50;10.50;;;;;;;-3.30;100.00;100212.16;88456;275;22539;-71
2023/11/23 08:56:46;;;;;;;11.80;8.90;;;;;;;-3.31;100.00;100209.31;88353;282;136799;-70
2023/11/23 08:58:48;;;;;;;13.10;9.70;;;;;;;-3.37;100.00;100210.77;88540;278;22540;-71
2023/11/23 09:00:52;;;;;;;13.90;10.10;;;;;;;-3.42;100.00;100204.27;88460;281;136549;-69
2023/11/23 09:02:54;;;;;;;11.30;9.30;;;;;;;-3.44;100.00;100197.66;88621;277;25116;-70
2023/11/23 09:06:25;;;;;;;11.60;8.70;;;;;;;-3.41;100.00;100175.24;86863;305;604460;-70
2023/11/23 09:08:28;;;;;;;11.40;8.10;;;;;;;-3.27;100.00;100180.22;88026;292;136301;-66
2023/11/23 09:10:29;;;;;;;16.00;10.60;;;;;;;-3.25;100.00;100169.80;87851;292;25163;-69
2023/11/23 09:12:33;;;;;;;13.90;9.00;;;;;;;-3.29;100.00;100157.06;87704;286;135944;-66
2023/11/23 09:14:35;;;;;;;12.00;10.10;;;;;;;-3.35;100.00;100149.27;87877;292;22540;-68
2023/11/23 09:16:49;;;;;;;10.80;8.90;;;;;;;-3.40;100.00;100146.48;87658;296;136774;-70
2023/11/23 09:18:51;;;;;;;16.00;11.80;;;;;;;-3.43;100.00;100145.27;87916;292;24151;-71
2023/11/23 09:20:54;;;;;;;19.10;13.70;;;;;;;-3.59;100.00;100122.40;87287;288;702818;-70
2023/11/23 09:23:03;;;;;;;14.50;11.00;;;;;;;-3.50;100.00;100135.31;87801;287;23021;-71
2023/11/23 09:25:06;;;;;;;17.90;10.40;;;;;;;-3.52;100.00;100123.50;87809;291;137258;-72
2023/11/23 09:27:09;;;;;;;13.10;9.80;;;;;;;-3.48;100.00;100117.87;87824;290;24068;-72
2023/11/23 09:29:12;;;;;;;22.20;10.60;;;;;;;-3.37;100.00;100119.83;87783;293;136844;-72
2023/11/23 09:31:17;;;;;;;11.90;8.90;;;;;;;-3.29;100.00;100118.61;87937;289;24085;-70
2023/11/23 09:33:21;;;;;;;9.50;8.10;;;;;;;-3.27;100.00;100122.19;87870;293;136144;-74
2023/11/23 09:35:28;;;;;;;10.20;7.90;;;;;;;-3.30;100.00;100122.73;87942;293;22564;-68